Time;durP1;ratioP1;P1;durP2;ratioP2;P2;SDS_P1;SDS_P2;PMS_P1;PMS_P2;Temp;Humidity;BMP_temperature;BMP_pressure;BME280_temperature;BME280_humidity;BME280_pressure;Samples;Min_cycle;Max_cycle;Signal;HPM_P1;HPM_P2
2024/01/09 00:00:54;;;;;;;4.88;2.92;;;;;;;-2.28;51.28;103048.72;3610923;39;20047;-64
2024/01/09 00:03:19;;;;;;;5.32;2.80;;;;;;;-2.29;51.43;103054.81;3610733;39;20055;-64
2024/01/09 00:05:45;;;;;;;3.50;2.90;;;;;;;-2.32;51.28;103057.38;3613799;39;21193;-64
2024/01/09 00:08:11;;;;;;;3.88;2.75;;;;;;;-2.33;51.89;103052.97;3611578;39;20063;-64
2024/01/09 00:10:37;;;;;;;6.68;2.90;;;;;;;-2.36;51.77;103052.88;3612632;39;20047;-64
2024/01/09 00:13:04;;;;;;;5.10;2.88;;;;;;;-2.80;51.50;102976.19;3611986;39;20061;-64
2024/01/09 00:15:30;;;;;;;5.22;3.10;;;;;;;-2.45;52.15;103040.34;3611056;39;20369;-64
2024/01/09 00:17:57;;;;;;;4.25;2.70;;;;;;;-2.33;51.94;103060.88;3609485;39;20383;-64
2024/01/09 00:20:24;;;;;;;5.55;3.00;;;;;;;-2.40;51.54;103051.03;3612243;39;20054;-64
2024/01/09 00:22:51;;;;;;;3.22;2.65;;;;;;;-2.41;52.14;103055.41;3614364;39;20065;-65
2024/01/09 00:25:18;;;;;;;2.85;2.45;;;;;;;-2.43;52.29;103059.72;3612089;39;20124;-64
2024/01/09 00:27:44;;;;;;;5.93;3.00;;;;;;;-2.42;52.16;103055.34;3613028;39;20058;-65
2024/01/09 00:30:11;;;;;;;4.15;2.70;;;;;;;-2.45;52.41;103057.88;3610618;39;20416;-64
2024/01/09 00:32:37;;;;;;;5.03;2.70;;;;;;;-2.68;52.25;103002.84;3612541;39;20047;-64
2024/01/09 00:35:03;;;;;;;2.78;2.53;;;;;;;-2.54;52.54;103026.91;3612399;39;20062;-64
2024/01/09 00:37:29;;;;;;;4.35;2.90;;;;;;;-2.51;52.47;103034.00;3604120;39;20059;-64
2024/01/09 00:39:54;;;;;;;2.80;2.50;;;;;;;-2.45;52.31;103042.97;3611591;39;20054;-64
2024/01/09 00:42:20;;;;;;;3.50;2.58;;;;;;;-2.47;52.60;103046.44;3610705;39;20418;-64
2024/01/09 00:44:46;;;;;;;5.03;3.13;;;;;;;-2.47;52.06;103049.06;3612666;39;20050;-64
2024/01/09 00:47:11;;;;;;;3.80;2.70;;;;;;;-2.48;52.26;103055.16;3610626;39;20082;-64
2024/01/09 00:49:37;;;;;;;6.03;3.35;;;;;;;-2.51;52.66;103052.44;3610806;39;20302;-64
2024/01/09 00:52:03;;;;;;;4.55;3.25;;;;;;;-2.67;53.02;103014.28;3611557;39;20422;-64
2024/01/09 00:54:29;;;;;;;4.03;2.90;;;;;;;-2.51;53.08;103045.44;3601907;39;20129;-64
2024/01/09 00:56:55;;;;;;;3.92;2.90;;;;;;;-2.49;52.67;103050.75;3609961;39;20390;-64
2024/01/09 00:59:20;;;;;;;3.72;2.80;;;;;;;-2.51;52.54;103049.81;3612493;39;20055;-64
2024/01/09 01:01:52;;;;;;;3.13;2.83;;;;;;;-2.48;52.72;103037.63;3613327;39;20042;-64
2024/01/09 01:04:18;;;;;;;5.65;2.97;;;;;;;-2.55;53.06;103056.75;3607800;39;20062;-64
2024/01/09 01:06:45;;;;;;;3.97;2.60;;;;;;;-2.58;53.10;103051.38;3612525;39;20307;-64
2024/01/09 01:09:12;;;;;;;4.05;3.17;;;;;;;-2.59;52.93;103045.25;3611742;39;20184;-64
2024/01/09 01:11:38;;;;;;;4.05;3.22;;;;;;;-2.57;52.97;103045.25;3612438;39;20046;-64
2024/01/09 01:14:03;;;;;;;4.82;3.13;;;;;;;-2.56;53.52;103049.69;3610953;39;20300;-64
2024/01/09 01:16:30;;;;;;;3.70;2.85;;;;;;;-2.55;52.80;103040.94;3613295;39;20119;-64
2024/01/09 01:18:55;;;;;;;3.92;2.92;;;;;;;-2.63;53.13;103038.13;3611274;39;20055;-64
2024/01/09 01:21:22;;;;;;;3.78;2.80;;;;;;;-3.54;53.30;102879.41;3611906;39;20054;-64
2024/01/09 01:23:48;;;;;;;2.97;2.58;;;;;;;-2.69;52.83;103040.56;3611693;39;20047;-64
2024/01/09 01:26:14;;;;;;;4.82;3.10;;;;;;;-2.64;53.59;103043.31;3610355;39;20144;-64
2024/01/09 01:28:40;;;;;;;5.40;2.90;;;;;;;-2.66;53.17;103059.09;3611987;39;20306;-64
2024/01/09 01:31:06;;;;;;;3.97;2.90;;;;;;;-2.68;53.25;103055.50;3601107;39;20166;-64
2024/01/09 01:33:31;;;;;;;3.28;2.63;;;;;;;-2.67;53.08;103057.28;3612073;39;20054;-64
2024/01/09 01:35:57;;;;;;;4.22;3.03;;;;;;;-2.69;52.90;103053.72;3611004;39;20062;-64
2024/01/09 01:38:23;;;;;;;4.07;2.75;;;;;;;-2.69;53.07;103059.00;3611875;39;20058;-63
2024/01/09 01:40:48;;;;;;;4.57;3.00;;;;;;;-2.71;53.32;103058.03;3611880;39;20058;-64
2024/01/09 01:43:14;;;;;;;3.40;2.63;;;;;;;-2.73;53.68;103049.19;3611408;39;20059;-63
2024/01/09 01:45:39;;;;;;;4.40;3.03;;;;;;;-2.72;52.90;103056.28;3613306;39;20104;-64
2024/01/09 01:48:06;;;;;;;5.28;2.95;;;;;;;-2.75;53.15;103045.66;3612291;39;20059;-64
2024/01/09 01:50:33;;;;;;;5.03;3.13;;;;;;;-2.78;52.83;103044.69;3612091;39;20054;-64
2024/01/09 01:53:04;;;;;;;3.83;2.50;;;;;;;-2.75;53.43;103048.28;3611625;39;20035;-64
2024/01/09 01:55:31;;;;;;;3.60;2.80;;;;;;;-2.77;53.20;103055.22;3602266;39;20277;-64
2024/01/09 01:57:58;;;;;;;12.45;6.22;;;;;;;-2.76;53.17;103051.75;3609015;39;20057;-64
2024/01/09 02:00:26;;;;;;;3.80;2.80;;;;;;;-2.74;52.86;103055.31;3611345;39;20091;-64
2024/01/09 02:02:54;;;;;;;5.43;2.90;;;;;;;-2.77;52.72;103051.72;3612168;39;20093;-64
2024/01/09 02:05:24;;;;;;;4.18;2.88;;;;;;;-2.78;53.11;103056.09;3612047;39;20055;-63
2024/01/09 02:07:54;;;;;;;5.15;2.97;;;;;;;-3.00;53.26;103024.75;3612343;39;20303;-64
2024/01/09 02:10:20;;;;;;;4.45;2.65;;;;;;;-2.94;53.18;103032.81;3611166;39;20063;-64
2024/01/09 02:12:46;;;;;;;3.97;2.67;;;;;;;-2.82;52.65;103052.47;3611329;39;20102;-63
2024/01/09 02:15:12;;;;;;;3.90;2.80;;;;;;;-2.82;53.52;103052.47;3599595;39;20306;-64
2024/01/09 02:17:38;;;;;;;3.88;2.97;;;;;;;-2.82;53.58;103048.97;3609232;39;20376;-64
2024/01/09 02:20:09;;;;;;;4.07;2.83;;;;;;;-2.86;53.57;103049.69;3611262;39;20260;-64
2024/01/09 02:22:35;;;;;;;2.78;2.42;;;;;;;-2.88;53.65;103040.88;3610674;39;20046;-64
2024/01/09 02:25:01;;;;;;;2.90;2.35;;;;;;;-2.91;53.34;103035.53;3611733;39;20054;-64
2024/01/09 02:28:13;;;;;;;4.18;2.67;;;;;;;-2.93;53.75;103042.47;3601020;39;20124;-63
2024/01/09 02:30:40;;;;;;;5.13;2.67;;;;;;;-2.93;53.53;103048.63;3613005;39;20051;-63
2024/01/09 02:33:07;;;;;;;4.82;3.17;;;;;;;-2.93;54.11;103043.38;3611968;39;20057;-63
2024/01/09 02:35:33;;;;;;;4.45;2.92;;;;;;;-2.93;53.66;103042.47;3610892;39;20062;-63
2024/01/09 02:37:59;;;;;;;4.40;2.95;;;;;;;-3.07;53.85;103019.28;3611393;39;20054;-63
2024/01/09 02:40:25;;;;;;;3.80;2.80;;;;;;;-3.00;53.82;103035.25;3610755;39;20067;-63
2024/01/09 02:42:50;;;;;;;5.63;2.80;;;;;;;-3.00;54.23;103035.25;3612634;39;20062;-63
2024/01/09 02:45:16;;;;;;;5.10;3.08;;;;;;;-3.04;54.09;103032.53;3611774;39;20335;-63
2024/01/09 02:47:42;;;;;;;4.20;2.80;;;;;;;-3.06;54.18;103030.69;3610396;39;20085;-63
2024/01/09 02:50:08;;;;;;;5.05;2.80;;;;;;;-2.98;53.78;103028.28;3611346;39;20050;-63
2024/01/09 02:52:34;;;;;;;3.20;2.80;;;;;;;-3.04;54.24;103029.91;3612540;39;20050;-63
2024/01/09 02:54:59;;;;;;;4.13;3.38;;;;;;;-3.09;54.83;103025.34;3611184;39;20310;-63
2024/01/09 02:57:25;;;;;;;4.45;2.80;;;;;;;-3.06;55.17;103028.97;3609092;39;20065;-63
2024/01/09 02:59:50;;;;;;;4.00;2.60;;;;;;;-3.09;54.66;103026.25;3611568;39;20116;-64
2024/01/09 03:02:16;;;;;;;4.35;2.85;;;;;;;-3.06;54.59;103031.59;3611480;39;20070;-63
2024/01/09 03:04:42;;;;;;;4.57;2.67;;;;;;;-3.15;54.42;103010.28;3611739;39;20062;-63
2024/01/09 03:07:07;;;;;;;4.38;2.92;;;;;;;-3.12;55.05;103013.00;3609122;39;20314;-63
2024/01/09 03:09:33;;;;;;;2.53;2.20;;;;;;;-3.11;54.93;103022.69;3611235;39;20057;-63
2024/01/09 03:11:59;;;;;;;5.50;3.00;;;;;;;-3.35;55.29;102979.88;3600214;39;20082;-63
2024/01/09 03:14:25;;;;;;;4.75;2.90;;;;;;;-3.12;55.18;103009.47;3611611;39;20128;-63
2024/01/09 03:16:51;;;;;;;4.38;2.72;;;;;;;-3.11;55.02;103020.06;3611856;39;20343;-63
2024/01/09 03:19:16;;;;;;;4.95;2.92;;;;;;;-3.13;55.32;103019.09;3601383;39;20920;-63
2024/01/09 03:21:42;;;;;;;4.63;2.88;;;;;;;-3.13;55.31;103026.13;3612268;39;20050;-63
2024/01/09 03:24:07;;;;;;;5.43;3.00;;;;;;;-3.16;54.79;103020.75;3610091;39;20160;-63
2024/01/09 03:26:33;;;;;;;5.13;2.80;;;;;;;-3.15;55.41;103019.91;3612693;39;20035;-64
2024/01/09 03:28:59;;;;;;;5.57;2.70;;;;;;;-3.23;55.58;103014.44;3611493;39;20058;-63
2024/01/09 03:31:25;;;;;;;5.15;2.92;;;;;;;-3.18;56.22;103023.31;3611996;39;20054;-63
2024/01/09 03:33:51;;;;;;;3.63;2.85;;;;;;;-3.20;55.42;103010.97;3612291;39;20331;-63
2024/01/09 03:36:17;;;;;;;4.22;3.00;;;;;;;-3.23;55.45;103022.31;3608905;39;20074;-63
2024/01/09 03:38:44;;;;;;;4.10;2.80;;;;;;;-3.25;55.81;103018.72;3611692;39;20059;-63
2024/01/09 03:41:11;;;;;;;3.65;2.60;;;;;;;-3.28;56.11;103013.38;3611165;39;20112;-63
2024/01/09 03:43:37;;;;;;;4.30;2.80;;;;;;;-3.26;55.74;103009.06;3612583;39;20047;-63
2024/01/09 03:46:03;;;;;;;4.35;2.78;;;;;;;-3.51;55.87;102966.25;3612002;39;20050;-63
2024/01/09 03:48:29;;;;;;;4.32;2.95;;;;;;;-3.30;55.98;103009.81;3602247;39;20055;-63
2024/01/09 03:50:55;;;;;;;3.95;3.00;;;;;;;-3.46;56.59;102986.53;3613659;39;20050;-63
2024/01/09 03:53:20;;;;;;;6.75;2.70;;;;;;;-3.31;56.13;103016.81;3613502;39;20074;-63
2024/01/09 03:55:46;;;;;;;5.97;3.92;;;;;;;-3.32;56.29;103012.41;3613533;39;20087;-62
2024/01/09 03:58:12;;;;;;;8.40;4.32;;;;;;;-3.30;56.15;103007.16;3612255;39;20156;-63
2024/01/09 04:00:38;;;;;;;4.55;2.63;;;;;;;-3.32;56.35;103008.88;3614312;39;20349;-63
2024/01/09 04:03:05;;;;;;;3.75;2.92;;;;;;;-3.31;56.61;103013.28;3613162;39;20042;-63
2024/01/09 04:05:32;;;;;;;3.28;2.72;;;;;;;-3.31;56.18;103008.03;3611828;39;20065;-63
2024/01/09 04:07:57;;;;;;;6.68;2.67;;;;;;;-3.34;56.26;103013.19;3612673;39;20118;-63
2024/01/09 04:10:23;;;;;;;3.47;2.75;;;;;;;-3.36;56.84;103015.78;3611394;39;20466;-63
2024/01/09 04:12:49;;;;;;;4.38;2.72;;;;;;;-3.38;56.61;103004.31;3609147;39;20404;-63
2024/01/09 04:15:15;;;;;;;3.60;2.67;;;;;;;-3.40;56.71;103005.13;3610857;39;20051;-63
2024/01/09 04:17:40;;;;;;;4.75;2.97;;;;;;;-3.39;56.98;103004.28;3610045;39;20086;-63
2024/01/09 04:20:11;;;;;;;8.02;3.65;;;;;;;-3.59;56.93;102969.47;3610599;39;20058;-63
2024/01/09 04:22:36;;;;;;;4.20;2.97;;;;;;;-3.45;56.88;102994.47;3611790;39;20040;-63
2024/01/09 04:25:02;;;;;;;5.53;2.75;;;;;;;-3.35;56.81;103011.41;3611792;39;20054;-63
2024/01/09 04:27:27;;;;;;;4.68;2.92;;;;;;;-3.39;56.86;103006.91;3610929;39;20065;-63
2024/01/09 04:29:53;;;;;;;3.47;3.08;;;;;;;-3.42;57.33;103014.72;3612210;39;20314;-62
2024/01/09 04:32:19;;;;;;;3.65;2.83;;;;;;;-3.42;56.92;103012.09;3607977;39;20050;-63
2024/01/09 04:34:44;;;;;;;4.15;2.90;;;;;;;-3.42;56.86;103012.09;3613503;39;20050;-63
2024/01/09 04:37:10;;;;;;;4.45;2.63;;;;;;;-3.43;57.03;103012.91;3612336;39;20119;-63
2024/01/09 04:39:35;;;;;;;6.57;3.30;;;;;;;-3.43;57.34;103018.16;3612056;39;20051;-64
2024/01/09 04:42:01;;;;;;;3.72;2.70;;;;;;;-3.39;56.50;103020.06;3613972;39;20047;-65
2024/01/09 04:44:27;;;;;;;4.35;2.78;;;;;;;-3.44;57.14;103021.66;3613130;39;20074;-63
2024/01/09 04:46:52;;;;;;;4.68;3.70;;;;;;;-3.45;57.44;103014.63;3610420;39;20383;-64
2024/01/09 04:49:18;;;;;;;3.42;2.78;;;;;;;-3.46;57.10;103018.06;3612418;39;20061;-64
2024/01/09 04:51:44;;;;;;;4.60;2.90;;;;;;;-3.45;57.38;103015.50;3611971;39;20051;-64
2024/01/09 04:54:10;;;;;;;5.75;3.45;;;;;;;-3.46;56.83;103013.69;3611119;39;20078;-64
2024/01/09 04:56:35;;;;;;;3.78;2.70;;;;;;;-3.48;57.11;103019.78;3612094;39;20066;-64
2024/01/09 04:59:01;;;;;;;5.82;3.40;;;;;;;-3.47;57.21;103018.91;3610096;39;20055;-64
2024/01/09 05:01:28;;;;;;;5.70;3.03;;;;;;;-3.49;57.59;103010.97;3608907;39;20183;-64
2024/01/09 05:03:54;;;;;;;4.80;3.25;;;;;;;-3.50;57.15;103007.44;3610061;39;20383;-64
2024/01/09 05:06:20;;;;;;;3.83;2.88;;;;;;;-3.47;56.97;103011.03;3610357;39;20051;-64
2024/01/09 05:08:46;;;;;;;4.07;3.28;;;;;;;-3.51;57.23;103005.69;3610558;39;20055;-64
2024/01/09 05:11:12;;;;;;;4.38;2.92;;;;;;;-3.51;56.92;103004.78;3612239;39;20124;-64
2024/01/09 05:13:38;;;;;;;4.57;2.95;;;;;;;-3.51;57.47;103005.69;3608233;39;20315;-64
2024/01/09 05:16:04;;;;;;;4.68;2.85;;;;;;;-3.49;57.69;103013.59;3608134;39;20489;-64
2024/01/09 05:18:31;;;;;;;5.28;3.30;;;;;;;-3.55;57.88;103011.69;3612438;39;20067;-64
2024/01/09 05:20:57;;;;;;;4.00;2.70;;;;;;;-3.51;57.49;103008.31;3611405;39;20368;-64
2024/01/09 05:23:23;;;;;;;5.18;3.10;;;;;;;-3.52;57.49;103017.06;3608138;39;20083;-64
2024/01/09 05:25:49;;;;;;;6.47;3.05;;;;;;;-3.52;57.64;103024.94;3611802;39;20055;-64
2024/01/09 05:28:15;;;;;;;4.82;3.03;;;;;;;-3.58;57.78;103016.84;3612269;39;20065;-64
2024/01/09 05:30:42;;;;;;;5.53;3.30;;;;;;;-3.54;57.88;103021.34;3607617;39;20368;-64
2024/01/09 05:33:07;;;;;;;4.07;2.85;;;;;;;-3.51;57.31;103024.09;3613561;39;20051;-64
2024/01/09 05:35:33;;;;;;;4.80;3.10;;;;;;;-3.55;57.17;103016.06;3609446;39;20547;-64
2024/01/09 05:37:59;;;;;;;5.63;3.35;;;;;;;-3.62;57.48;103008.81;3611406;39;20061;-64
2024/01/09 05:40:24;;;;;;;4.07;3.17;;;;;;;-3.58;57.89;103011.59;3609181;39;20059;-64
2024/01/09 05:42:50;;;;;;;4.53;3.25;;;;;;;-3.77;57.41;102975.97;3609607;39;20089;-64
2024/01/09 05:45:16;;;;;;;5.65;3.55;;;;;;;-3.59;57.47;103007.16;3609663;39;20380;-64
2024/01/09 05:47:42;;;;;;;6.15;3.08;;;;;;;-3.57;57.55;103016.00;3610788;39;20051;-64
2024/01/09 05:50:09;;;;;;;5.55;3.20;;;;;;;-3.59;57.06;103012.41;3610963;39;20070;-64
2024/01/09 05:52:39;;;;;;;5.43;3.03;;;;;;;-3.87;57.51;102967.72;3610423;39;20058;-64
2024/01/09 05:55:06;;;;;;;4.90;3.20;;;;;;;-3.62;57.96;103020.22;3606299;39;20053;-64
2024/01/09 05:57:32;;;;;;;4.70;3.33;;;;;;;-3.70;58.19;102997.19;3609316;39;20063;-64
2024/01/09 05:59:58;;;;;;;4.63;3.47;;;;;;;-3.64;57.96;103007.88;3610606;39;20408;-64
2024/01/09 06:02:25;;;;;;;5.15;3.25;;;;;;;-3.62;57.73;103019.31;3612430;39;20043;-64
2024/01/09 06:04:51;;;;;;;4.38;3.42;;;;;;;-3.62;57.48;103009.69;3611232;39;20070;-64
2024/01/09 06:07:17;;;;;;;5.70;3.53;;;;;;;-3.64;58.13;103019.28;3608467;39;20327;-64
2024/01/09 06:09:44;;;;;;;5.28;3.25;;;;;;;-3.66;58.13;103010.44;3606988;39;20070;-64
2024/01/09 06:12:09;;;;;;;5.38;3.15;;;;;;;-3.69;58.05;103010.34;3609890;39;20054;-64
2024/01/09 06:14:35;;;;;;;5.05;3.17;;;;;;;-3.68;57.80;103003.34;3612137;39;20092;-64
2024/01/09 06:17:01;;;;;;;6.53;3.53;;;;;;;-4.49;57.93;102870.31;3608074;39;20059;-64
2024/01/09 06:19:26;;;;;;;4.88;3.30;;;;;;;-3.69;58.14;103015.59;3607123;39;20050;-64
2024/01/09 06:21:52;;;;;;;5.45;3.42;;;;;;;-3.71;58.11;103017.31;3608978;39;20043;-64
2024/01/09 06:24:17;;;;;;;5.40;3.50;;;;;;;-3.71;57.88;103022.56;3598435;39;20039;-64
2024/01/09 06:26:43;;;;;;;5.97;3.60;;;;;;;-3.73;58.15;103019.00;3609494;39;20053;-64
2024/01/09 06:29:09;;;;;;;5.43;3.22;;;;;;;-3.73;58.22;103016.34;3611270;39;20323;-64
2024/01/09 06:31:35;;;;;;;4.97;3.20;;;;;;;-3.76;58.09;103016.25;3611578;39;20109;-64
2024/01/09 06:34:01;;;;;;;5.78;3.50;;;;;;;-3.77;58.41;103032.88;3612827;39;20114;-64
2024/01/09 06:36:26;;;;;;;5.00;3.60;;;;;;;-3.77;58.39;103032.88;3609525;39;20340;-64
2024/01/09 06:38:52;;;;;;;8.95;4.00;;;;;;;-3.77;58.49;103027.63;3610344;39;20043;-64
2024/01/09 06:41:18;;;;;;;6.05;3.53;;;;;;;-3.77;58.47;103039.03;3608494;39;20315;-64
2024/01/09 06:43:44;;;;;;;6.53;3.70;;;;;;;-3.73;58.44;103040.00;3613279;39;20043;-64
2024/01/09 06:46:09;;;;;;;4.53;3.28;;;;;;;-3.77;58.40;103044.28;3612170;39;20051;-64
2024/01/09 06:48:35;;;;;;;4.95;3.42;;;;;;;-3.81;58.51;103037.13;3610774;39;20066;-64
2024/01/09 06:51:01;;;;;;;6.45;4.05;;;;;;;-3.77;58.59;103043.38;3610805;39;20095;-64
2024/01/09 06:53:26;;;;;;;5.53;3.60;;;;;;;-3.78;58.47;103046.84;3610856;39;20062;-63
2024/01/09 06:55:52;;;;;;;5.82;3.83;;;;;;;-3.79;58.50;103043.31;3611626;39;20418;-64
2024/01/09 06:58:18;;;;;;;5.88;3.45;;;;;;;-3.83;58.74;103037.94;3611253;39;20054;-64
2024/01/09 07:00:44;;;;;;;7.97;4.22;;;;;;;-3.80;58.84;103043.28;3611870;39;20080;-64
2024/01/09 07:03:10;;;;;;;6.40;3.58;;;;;;;-3.79;58.95;103042.44;3610240;39;20066;-64
2024/01/09 07:05:35;;;;;;;7.80;4.20;;;;;;;-3.81;58.64;103041.47;3610930;39;20063;-64
2024/01/09 07:08:03;;;;;;;8.13;4.28;;;;;;;-4.01;58.68;103007.56;3611797;39;20104;-64
2024/01/09 07:10:29;;;;;;;6.05;3.55;;;;;;;-3.83;59.05;103043.19;3610407;39;20123;-64
2024/01/09 07:12:56;;;;;;;5.55;3.90;;;;;;;-4.00;59.31;102998.84;3612157;39;20047;-64
2024/01/09 07:15:22;;;;;;;5.45;3.55;;;;;;;-3.81;58.90;103044.09;3601828;39;20367;-64
2024/01/09 07:17:47;;;;;;;5.22;3.72;;;;;;;-3.93;58.76;103025.31;3611744;39;20059;-64
2024/01/09 07:20:14;;;;;;;6.55;3.50;;;;;;;-4.11;58.98;103000.22;3607023;39;20331;-64
2024/01/09 07:22:39;;;;;;;7.70;3.90;;;;;;;-3.83;59.23;103048.44;3606175;39;20055;-64
2024/01/09 07:25:05;;;;;;;5.80;3.83;;;;;;;-3.83;59.25;103043.19;3611374;39;20284;-64
2024/01/09 07:27:31;;;;;;;6.18;3.85;;;;;;;-3.85;59.31;103050.13;3611784;39;20387;-64
2024/01/09 07:29:56;;;;;;;5.32;3.70;;;;;;;-3.89;59.20;103042.97;3610195;39;20069;-64
2024/01/09 07:32:22;;;;;;;5.03;3.70;;;;;;;-3.83;59.31;103046.69;3613172;39;20050;-63
2024/01/09 07:34:48;;;;;;;6.05;3.70;;;;;;;-3.99;59.43;103028.66;3607722;39;20062;-64
2024/01/09 07:37:14;;;;;;;13.82;6.55;;;;;;;-3.84;59.36;103052.78;3606015;39;20059;-64
2024/01/09 07:39:40;;;;;;;7.35;4.22;;;;;;;-3.83;59.32;103064.19;3612869;39;20070;-63
2024/01/09 07:42:07;;;;;;;5.50;3.83;;;;;;;-3.83;59.17;103065.09;3611739;39;20069;-63
2024/01/09 07:44:33;;;;;;;8.25;4.60;;;;;;;-3.83;59.37;103069.47;3613101;39;20143;-63
2024/01/09 07:46:59;;;;;;;5.88;4.05;;;;;;;-3.81;59.48;103078.25;3612788;39;20047;-62
2024/01/09 07:49:25;;;;;;;6.10;3.72;;;;;;;-3.84;59.49;103073.78;3613028;39;20433;-62
2024/01/09 07:51:51;;;;;;;8.68;4.18;;;;;;;-3.85;59.62;103071.13;3612297;39;20361;-63
2024/01/09 07:54:16;;;;;;;5.80;3.70;;;;;;;-3.82;59.38;103071.22;3609974;39;20300;-63
2024/01/09 07:56:42;;;;;;;5.30;3.55;;;;;;;-4.33;59.42;102981.97;3613001;39;20391;-63
2024/01/09 07:59:07;;;;;;;6.07;4.13;;;;;;;-4.01;58.97;103036.47;3603824;39;20092;-63
2024/01/09 08:01:34;;;;;;;6.85;4.63;;;;;;;-3.81;59.07;103078.25;3612249;39;20298;-63
2024/01/09 08:04:01;;;;;;;7.43;4.63;;;;;;;-3.80;59.01;103077.44;3611163;39;20031;-63
2024/01/09 08:06:27;;;;;;;6.65;4.35;;;;;;;-3.78;59.10;103079.25;3612402;39;20067;-63
2024/01/09 08:08:53;;;;;;;6.95;4.07;;;;;;;-3.80;59.54;103086.22;3613693;39;20172;-63
2024/01/09 08:11:18;;;;;;;9.10;4.65;;;;;;;-3.78;59.23;103083.63;3611203;39;20324;-63
2024/01/09 08:13:44;;;;;;;6.70;4.43;;;;;;;-3.80;59.00;103085.31;3612120;39;20055;-61
2024/01/09 08:16:09;;;;;;;7.38;3.90;;;;;;;-3.75;58.93;103081.09;3613212;39;20135;-62
2024/01/09 08:18:37;;;;;;;6.95;4.47;;;;;;;-3.75;58.67;103084.63;3612621;39;20062;-62
2024/01/09 08:21:03;;;;;;;7.40;4.65;;;;;;;-3.74;58.88;103083.78;3602958;39;20116;-62
2024/01/09 08:23:28;;;;;;;6.57;4.00;;;;;;;-3.72;59.13;103086.47;3612592;39;20090;-62
2024/01/09 08:25:54;;;;;;;8.20;4.25;;;;;;;-3.71;58.91;103080.38;3613082;39;20391;-63
2024/01/09 08:28:19;;;;;;;6.65;3.97;;;;;;;-3.71;58.66;103088.28;3611922;39;20062;-62
2024/01/09 08:30:45;;;;;;;5.90;3.95;;;;;;;-3.71;58.66;103080.38;3612711;39;20050;-62
2024/01/09 08:33:11;;;;;;;6.53;4.38;;;;;;;-3.60;58.61;103094.75;3613358;39;20054;-62
2024/01/09 08:35:37;;;;;;;6.65;3.88;;;;;;;-3.56;58.37;103091.38;3612081;39;20066;-62
2024/01/09 08:38:03;;;;;;;6.53;4.03;;;;;;;-3.56;58.02;103091.38;3610929;39;20034;-62
2024/01/09 08:40:29;;;;;;;8.38;4.78;;;;;;;-3.53;58.42;103099.38;3601668;39;20051;-62
2024/01/09 08:42:55;;;;;;;6.43;4.32;;;;;;;-3.53;58.11;103085.34;3612535;39;20059;-62
2024/01/09 08:45:21;;;;;;;8.13;4.28;;;;;;;-3.55;58.38;103087.94;3610951;39;20047;-62
2024/01/09 08:47:47;;;;;;;7.68;4.75;;;;;;;-3.52;58.50;103092.38;3613013;39;20468;-62
2024/01/09 08:50:13;;;;;;;7.47;4.90;;;;;;;-3.50;58.58;103103.84;3613649;39;20055;-62
2024/01/09 08:52:38;;;;;;;8.70;4.85;;;;;;;-3.46;58.74;103102.19;3610931;39;20066;-62
2024/01/09 08:55:04;;;;;;;7.25;4.57;;;;;;;-3.41;58.40;103096.25;3612736;39;20043;-62
2024/01/09 08:57:31;;;;;;;7.43;4.47;;;;;;;-3.40;58.56;103103.28;3610882;39;20143;-62
2024/01/09 08:59:57;;;;;;;9.55;5.00;;;;;;;-3.38;58.24;103098.97;3601791;39;20047;-62
2024/01/09 09:02:24;;;;;;;7.00;4.47;;;;;;;-3.31;58.29;103102.69;3610948;39;20364;-62
2024/01/09 09:04:50;;;;;;;6.10;3.80;;;;;;;-3.28;58.14;103100.16;3611986;39;20286;-62
2024/01/09 09:07:18;;;;;;;10.13;5.10;;;;;;;-3.24;57.77;103103.78;3612691;39;20120;-62
2024/01/09 09:09:44;;;;;;;7.05;4.72;;;;;;;-3.23;57.74;103103.84;3609703;39;20124;-62
2024/01/09 09:12:10;;;;;;;8.45;4.38;;;;;;;-3.17;57.32;103111.94;3610524;39;20059;-62
2024/01/09 09:14:36;;;;;;;9.27;5.10;;;;;;;-3.21;57.27;103094.25;3610309;39;20108;-62
2024/01/09 09:17:02;;;;;;;7.03;4.18;;;;;;;-3.13;57.24;103095.38;3611713;39;20404;-62
2024/01/09 09:19:27;;;;;;;8.45;4.90;;;;;;;-3.06;57.10;103113.13;3610820;39;20315;-62
2024/01/09 09:21:53;;;;;;;6.63;4.22;;;;;;;-3.04;56.91;103116.72;3611689;39;20302;-62
2024/01/09 09:24:19;;;;;;;7.13;4.68;;;;;;;-2.94;56.74;103101.22;3612152;39;20047;-62
2024/01/09 09:26:45;;;;;;;11.70;4.93;;;;;;;-2.92;56.89;103097.75;3611158;39;20085;-62
2024/01/09 09:29:10;;;;;;;9.43;5.18;;;;;;;-2.86;55.81;103107.59;3611524;39;20054;-62
2024/01/09 09:31:36;;;;;;;8.52;5.10;;;;;;;-2.85;55.96;103104.13;3611517;39;20403;-62
2024/01/09 09:34:01;;;;;;;8.65;5.10;;;;;;;-2.80;55.86;103099.88;3612251;39;20061;-62
2024/01/09 09:36:27;;;;;;;9.30;5.07;;;;;;;-2.76;55.56;103109.66;3609248;39;20055;-62
2024/01/09 09:38:53;;;;;;;7.55;4.40;;;;;;;-2.72;54.97;103094.88;3611497;39;20157;-62
2024/01/09 09:41:21;;;;;;;8.43;4.88;;;;;;;-2.72;55.17;103089.59;3612339;39;20053;-62
2024/01/09 09:43:56;;;;;;;8.40;4.70;;;;;;;-2.57;55.28;103105.81;3610930;39;20074;-62
2024/01/09 09:46:29;;;;;;;6.75;4.70;;;;;;;-2.44;54.41;103091.25;3610151;39;20391;-62
2024/01/09 09:48:56;;;;;;;10.65;4.47;;;;;;;-2.39;54.00;103092.28;3612670;39;20396;-62
2024/01/09 09:51:23;;;;;;;7.93;4.20;;;;;;;-2.33;53.57;103089.84;3610855;39;20287;-62
2024/01/09 09:53:49;;;;;;;8.27;4.47;;;;;;;-2.31;53.72;103088.16;3609863;39;20047;-63
2024/01/09 09:56:16;;;;;;;6.95;4.35;;;;;;;-2.15;53.11;103100.00;3611178;39;20094;-63
2024/01/09 09:58:42;;;;;;;6.40;4.10;;;;;;;-2.07;53.77;103097.56;3601933;39;20298;-63
2024/01/09 10:01:13;;;;;;;6.93;4.25;;;;;;;-1.97;52.60;103099.59;3612545;39;20130;-63
2024/01/09 10:03:55;;;;;;;8.15;4.80;;;;;;;-1.79;51.79;103084.25;3611117;39;20405;-64
2024/01/09 10:06:22;;;;;;;6.05;4.28;;;;;;;-1.64;52.42;103084.66;3611005;39;20062;-63
2024/01/09 10:08:49;;;;;;;9.05;4.70;;;;;;;-1.45;51.47;103091.25;3611556;39;20116;-63
2024/01/09 10:11:16;;;;;;;6.90;4.38;;;;;;;-1.27;50.62;103082.91;3610680;39;20083;-64
2024/01/09 10:13:42;;;;;;;7.07;5.00;;;;;;;-1.06;51.41;103078.97;3608542;39;20888;-63
2024/01/09 10:16:08;;;;;;;7.30;4.38;;;;;;;-0.90;49.51;103090.75;3611030;39;20391;-64
2024/01/09 10:18:36;;;;;;;7.43;4.65;;;;;;;-0.73;49.41;103079.72;3610134;39;20422;-65
2024/01/09 10:21:02;;;;;;;6.85;4.30;;;;;;;-0.66;48.86;103070.16;3610992;39;20043;-63
2024/01/09 10:23:29;;;;;;;6.93;4.22;;;;;;;-0.44;47.61;103067.94;3609778;39;20054;-64
2024/01/09 10:25:56;;;;;;;6.97;4.25;;;;;;;-0.37;47.22;103068.09;3609960;39;20086;-64
2024/01/09 10:28:23;;;;;;;6.32;4.13;;;;;;;-0.61;47.53;102985.72;3609980;39;20059;-64
2024/01/09 10:30:52;;;;;;;6.97;4.53;;;;;;;0.14;47.30;103069.03;3610025;39;21839;-64
2024/01/09 10:33:18;;;;;;;7.43;4.95;;;;;;;0.23;46.62;103055.97;3610973;39;20062;-64
2024/01/09 10:35:44;;;;;;;7.40;4.55;;;;;;;0.48;45.27;103067.84;3609911;39;20047;-63
2024/01/09 10:38:11;;;;;;;7.10;4.45;;;;;;;0.53;44.59;103068.78;3610522;39;20409;-64
2024/01/09 10:40:37;;;;;;;6.28;4.55;;;;;;;0.63;45.15;103067.19;3609068;39;20339;-64
2024/01/09 10:43:04;;;;;;;6.72;4.32;;;;;;;0.66;45.25;103033.69;3610416;39;20049;-64
2024/01/09 10:45:33;;;;;;;8.55;4.53;;;;;;;0.99;44.98;103061.56;3609520;39;20371;-64
2024/01/09 10:47:59;;;;;;;6.68;4.78;;;;;;;1.22;44.29;103058.31;3610257;39;20105;-65
2024/01/09 10:50:25;;;;;;;7.28;4.22;;;;;;;1.41;42.77;103060.31;3610652;39;20062;-64
2024/01/09 10:52:51;;;;;;;7.10;4.20;;;;;;;1.41;43.05;103060.31;3612426;39;20055;-64
2024/01/09 10:55:22;;;;;;;6.35;3.85;;;;;;;1.44;43.16;103044.47;3612214;39;20053;-65
2024/01/09 10:57:48;;;;;;;7.90;4.43;;;;;;;1.55;41.87;103049.88;3611782;39;20134;-65
2024/01/09 11:00:16;;;;;;;7.47;4.90;;;;;;;1.59;42.06;103034.03;3612210;39;20049;-65
2024/01/09 11:02:42;;;;;;;6.80;4.78;;;;;;;1.71;42.71;103040.31;3612305;39;20058;-65
2024/01/09 11:05:13;;;;;;;7.78;4.97;;;;;;;1.87;41.97;103026.34;3613377;39;20039;-65
2024/01/09 11:07:44;;;;;;;5.97;4.68;;;;;;;1.96;41.42;103023.78;3610279;39;20094;-65
2024/01/09 11:10:19;;;;;;;6.93;4.80;;;;;;;2.13;41.98;103031.03;3610100;39;20094;-65
2024/01/09 11:12:50;;;;;;;6.47;4.43;;;;;;;2.33;40.50;103013.50;3611194;39;20128;-65
2024/01/09 11:15:19;;;;;;;6.60;4.15;;;;;;;2.50;39.34;103022.44;3607875;39;20388;-65
2024/01/09 11:17:53;;;;;;;6.57;4.32;;;;;;;2.71;39.99;103024.38;3609401;39;20043;-65
2024/01/09 11:20:19;;;;;;;7.00;4.38;;;;;;;2.83;39.15;103018.25;3613445;39;20438;-65
2024/01/09 11:22:45;;;;;;;6.25;4.10;;;;;;;2.93;39.33;103021.84;3600663;39;20062;-65